sensor_id;sensor_type;location;lat;lon;timestamp;pressure;altitude;pressure_sealevel;temperature;humidity
77019;BME280;66044;53.142;17.962;2023-05-20T00:02:08;102282.66;;;11.79;69.22
77019;BME280;66044;53.142;17.962;2023-05-20T00:04:34;102280.42;;;11.78;69.22
77019;BME280;66044;53.142;17.962;2023-05-20T00:07:01;102282.92;;;11.76;69.12
77019;BME280;66044;53.142;17.962;2023-05-20T00:09:27;102285.02;;;11.75;69.20
77019;BME280;66044;53.142;17.962;2023-05-20T00:11:54;102281.73;;;11.73;69.62
77019;BME280;66044;53.142;17.962;2023-05-20T00:14:21;102277.91;;;11.74;69.23
77019;BME280;66044;53.142;17.962;2023-05-20T00:16:47;102274.83;;;11.72;69.79
77019;BME280;66044;53.142;17.962;2023-05-20T00:19:14;102273.85;;;11.73;69.62
77019;BME280;66044;53.142;17.962;2023-05-20T00:21:40;102274.58;;;11.71;70.23
77019;BME280;66044;53.142;17.962;2023-05-20T00:24:07;102272.96;;;11.67;69.88
77019;BME280;66044;53.142;17.962;2023-05-20T00:26:33;102272.98;;;11.66;70.42
77019;BME280;66044;53.142;17.962;2023-05-20T00:29:00;102267.13;;;11.65;70.17
77019;BME280;66044;53.142;17.962;2023-05-20T00:31:26;102269.73;;;11.67;70.38
77019;BME280;66044;53.142;17.962;2023-05-20T00:33:52;102268.26;;;11.68;70.27
77019;BME280;66044;53.142;17.962;2023-05-20T00:36:19;102265.70;;;11.70;70.44
77019;BME280;66044;53.142;17.962;2023-05-20T00:38:45;102262.90;;;11.74;70.24
77019;BME280;66044;53.142;17.962;2023-05-20T00:41:12;102260.80;;;11.75;70.47
77019;BME280;66044;53.142;17.962;2023-05-20T00:43:38;102261.41;;;11.78;70.28
77019;BME280;66044;53.142;17.962;2023-05-20T00:46:05;102264.21;;;11.78;69.98
77019;BME280;66044;53.142;17.962;2023-05-20T00:48:41;102262.17;;;11.78;70.11
77019;BME280;66044;53.142;17.962;2023-05-20T00:51:09;102259.75;;;11.77;70.02
77019;BME280;66044;53.142;17.962;2023-05-20T00:53:36;102257.41;;;11.75;70.52
77019;BME280;66044;53.142;17.962;2023-05-20T00:56:03;102255.38;;;11.74;70.32
77019;BME280;66044;53.142;17.962;2023-05-20T00:58:30;102253.69;;;11.76;69.93
77019;BME280;66044;53.142;17.962;2023-05-20T01:00:58;102251.42;;;11.76;69.90
77019;BME280;66044;53.142;17.962;2023-05-20T01:03:28;102253.33;;;11.75;69.78
77019;BME280;66044;53.142;17.962;2023-05-20T01:05:55;102254.39;;;11.74;69.98
77019;BME280;66044;53.142;17.962;2023-05-20T01:08:22;102251.80;;;11.72;69.85
77019;BME280;66044;53.142;17.962;2023-05-20T01:10:57;102249.92;;;11.71;70.34
77019;BME280;66044;53.142;17.962;2023-05-20T01:13:32;102251.09;;;11.72;70.02
77019;BME280;66044;53.142;17.962;2023-05-20T01:16:02;102251.27;;;11.71;70.10
77019;BME280;66044;53.142;17.962;2023-05-20T01:18:30;102251.41;;;11.68;70.09
77019;BME280;66044;53.142;17.962;2023-05-20T01:20:58;102255.14;;;11.67;70.01
77019;BME280;66044;53.142;17.962;2023-05-20T01:23:32;102253.30;;;11.68;70.44
77019;BME280;66044;53.142;17.962;2023-05-20T01:25:59;102248.79;;;11.67;70.08
77019;BME280;66044;53.142;17.962;2023-05-20T01:28:25;102251.69;;;11.68;70.05
77019;BME280;66044;53.142;17.962;2023-05-20T01:30:55;102251.77;;;11.66;70.23
77019;BME280;66044;53.142;17.962;2023-05-20T01:33:24;102256.23;;;11.66;70.39
77019;BME280;66044;53.142;17.962;2023-05-20T01:35:50;102252.70;;;11.68;70.32
77019;BME280;66044;53.142;17.962;2023-05-20T01:38:17;102253.54;;;11.70;70.17
77019;BME280;66044;53.142;17.962;2023-05-20T01:40:45;102252.02;;;11.70;70.06
77019;BME280;66044;53.142;17.962;2023-05-20T01:43:12;102250.02;;;11.72;70.15
77019;BME280;66044;53.142;17.962;2023-05-20T01:45:40;102247.77;;;11.74;70.23
77019;BME280;66044;53.142;17.962;2023-05-20T01:48:09;102242.17;;;11.74;70.16
77019;BME280;66044;53.142;17.962;2023-05-20T01:50:37;102244.54;;;11.74;70.02
77019;BME280;66044;53.142;17.962;2023-05-20T01:53:04;102244.77;;;11.74;70.27
77019;BME280;66044;53.142;17.962;2023-05-20T01:55:31;102245.89;;;11.75;70.21
77019;BME280;66044;53.142;17.962;2023-05-20T01:57:57;102244.85;;;11.76;70.27
77019;BME280;66044;53.142;17.962;2023-05-20T02:00:24;102244.00;;;11.75;70.06
77019;BME280;66044;53.142;17.962;2023-05-20T02:02:50;102245.45;;;11.76;70.09
77019;BME280;66044;53.142;17.962;2023-05-20T02:05:17;102242.25;;;11.77;70.19
77019;BME280;66044;53.142;17.962;2023-05-20T02:07:43;102247.70;;;11.77;69.86
77019;BME280;66044;53.142;17.962;2023-05-20T02:10:10;102246.74;;;11.75;69.87
77019;BME280;66044;53.142;17.962;2023-05-20T02:12:36;102243.79;;;11.74;70.22
77019;BME280;66044;53.142;17.962;2023-05-20T02:15:03;102244.08;;;11.73;70.20
77019;BME280;66044;53.142;17.962;2023-05-20T02:17:30;102240.46;;;11.70;69.64
77019;BME280;66044;53.142;17.962;2023-05-20T02:19:56;102241.73;;;11.67;70.09
77019;BME280;66044;53.142;17.962;2023-05-20T02:22:23;102242.76;;;11.64;69.92
77019;BME280;66044;53.142;17.962;2023-05-20T02:24:49;102243.41;;;11.63;69.78
77019;BME280;66044;53.142;17.962;2023-05-20T02:27:15;102243.98;;;11.61;70.18
77019;BME280;66044;53.142;17.962;2023-05-20T02:29:42;102244.31;;;11.61;69.99
77019;BME280;66044;53.142;17.962;2023-05-20T02:32:09;102243.71;;;11.61;70.30
77019;BME280;66044;53.142;17.962;2023-05-20T02:34:36;102236.55;;;11.61;69.94
77019;BME280;66044;53.142;17.962;2023-05-20T02:37:02;102235.92;;;11.60;70.00
77019;BME280;66044;53.142;17.962;2023-05-20T02:39:29;102233.50;;;11.60;70.05
77019;BME280;66044;53.142;17.962;2023-05-20T02:41:55;102236.12;;;11.62;70.34
77019;BME280;66044;53.142;17.962;2023-05-20T02:44:22;102233.48;;;11.62;70.11
77019;BME280;66044;53.142;17.962;2023-05-20T02:46:48;102229.85;;;11.59;69.82
77019;BME280;66044;53.142;17.962;2023-05-20T02:49:15;102232.16;;;11.58;69.97
77019;BME280;66044;53.142;17.962;2023-05-20T02:51:41;102237.28;;;11.59;70.05
77019;BME280;66044;53.142;17.962;2023-05-20T02:54:07;102235.56;;;11.59;70.16
77019;BME280;66044;53.142;17.962;2023-05-20T02:56:34;102239.32;;;11.60;70.20
77019;BME280;66044;53.142;17.962;2023-05-20T02:59:00;102236.66;;;11.61;70.01
77019;BME280;66044;53.142;17.962;2023-05-20T03:01:28;102235.81;;;11.60;69.61
77019;BME280;66044;53.142;17.962;2023-05-20T03:03:55;102239.11;;;11.59;70.10
77019;BME280;66044;53.142;17.962;2023-05-20T03:06:21;102236.86;;;11.58;69.87
77019;BME280;66044;53.142;17.962;2023-05-20T03:08:47;102236.60;;;11.55;70.10
77019;BME280;66044;53.142;17.962;2023-05-20T03:11:14;102238.14;;;11.57;70.22
77019;BME280;66044;53.142;17.962;2023-05-20T03:13:41;102239.23;;;11.57;70.36
77019;BME280;66044;53.142;17.962;2023-05-20T03:16:07;102240.84;;;11.58;70.24
77019;BME280;66044;53.142;17.962;2023-05-20T03:18:34;102242.50;;;11.59;70.18
77019;BME280;66044;53.142;17.962;2023-05-20T03:21:00;102242.77;;;11.60;70.03
77019;BME280;66044;53.142;17.962;2023-05-20T03:23:27;102244.64;;;11.60;69.73
77019;BME280;66044;53.142;17.962;2023-05-20T03:25:54;102246.20;;;11.60;70.04
77019;BME280;66044;53.142;17.962;2023-05-20T03:28:20;102247.13;;;11.59;70.08
77019;BME280;66044;53.142;17.962;2023-05-20T03:30:47;102243.69;;;11.58;70.10
77019;BME280;66044;53.142;17.962;2023-05-20T03:33:13;102246.14;;;11.61;69.74
77019;BME280;66044;53.142;17.962;2023-05-20T03:35:41;102248.66;;;11.61;69.83
77019;BME280;66044;53.142;17.962;2023-05-20T03:38:07;102250.05;;;11.63;69.59
77019;BME280;66044;53.142;17.962;2023-05-20T03:40:33;102248.66;;;11.61;70.03
77019;BME280;66044;53.142;17.962;2023-05-20T03:43:00;102251.56;;;11.62;69.72
77019;BME280;66044;53.142;17.962;2023-05-20T03:45:27;102252.86;;;11.65;69.60
77019;BME280;66044;53.142;17.962;2023-05-20T03:47:53;102253.61;;;11.69;69.65
77019;BME280;66044;53.142;17.962;2023-05-20T03:50:20;102254.90;;;11.72;69.84
77019;BME280;66044;53.142;17.962;2023-05-20T03:52:46;102256.88;;;11.74;69.46
77019;BME280;66044;53.142;17.962;2023-05-20T03:55:12;102258.54;;;11.75;69.64
77019;BME280;66044;53.142;17.962;2023-05-20T03:57:40;102257.40;;;11.75;69.56
77019;BME280;66044;53.142;17.962;2023-05-20T04:00:07;102255.58;;;11.73;69.29
77019;BME280;66044;53.142;17.962;2023-05-20T04:02:39;102255.83;;;11.72;69.44
77019;BME280;66044;53.142;17.962;2023-05-20T04:05:06;102258.27;;;11.74;68.87
77019;BME280;66044;53.142;17.962;2023-05-20T04:07:34;102264.74;;;11.74;68.84
77019;BME280;66044;53.142;17.962;2023-05-20T04:10:02;102264.63;;;11.74;68.86
77019;BME280;66044;53.142;17.962;2023-05-20T04:12:28;102266.17;;;11.76;68.90
77019;BME280;66044;53.142;17.962;2023-05-20T04:14:57;102268.30;;;11.78;69.01
77019;BME280;66044;53.142;17.962;2023-05-20T04:17:23;102269.59;;;11.81;68.70
77019;BME280;66044;53.142;17.962;2023-05-20T04:19:50;102267.64;;;11.82;68.58
77019;BME280;66044;53.142;17.962;2023-05-20T04:22:16;102270.58;;;11.80;68.56
77019;BME280;66044;53.142;17.962;2023-05-20T04:24:43;102265.71;;;11.79;68.65
77019;BME280;66044;53.142;17.962;2023-05-20T04:27:09;102267.19;;;11.76;68.39
77019;BME280;66044;53.142;17.962;2023-05-20T04:29:36;102266.33;;;11.76;68.43
77019;BME280;66044;53.142;17.962;2023-05-20T04:32:02;102266.27;;;11.78;68.44
77019;BME280;66044;53.142;17.962;2023-05-20T04:34:29;102264.04;;;11.80;68.56
77019;BME280;66044;53.142;17.962;2023-05-20T04:36:55;102265.91;;;11.82;68.28
77019;BME280;66044;53.142;17.962;2023-05-20T04:39:23;102259.95;;;11.85;68.31
77019;BME280;66044;53.142;17.962;2023-05-20T04:41:49;102253.98;;;11.87;68.43
77019;BME280;66044;53.142;17.962;2023-05-20T04:44:16;102255.88;;;11.89;68.54
77019;BME280;66044;53.142;17.962;2023-05-20T04:46:42;102254.83;;;11.91;68.26
77019;BME280;66044;53.142;17.962;2023-05-20T04:49:09;102253.97;;;11.91;67.94
77019;BME280;66044;53.142;17.962;2023-05-20T04:51:36;102255.63;;;11.92;67.86
77019;BME280;66044;53.142;17.962;2023-05-20T04:54:02;102258.33;;;11.92;67.80
77019;BME280;66044;53.142;17.962;2023-05-20T04:56:29;102261.29;;;11.95;67.92
77019;BME280;66044;53.142;17.962;2023-05-20T04:58:55;102262.70;;;11.97;67.88
77019;BME280;66044;53.142;17.962;2023-05-20T05:01:22;102261.56;;;12.01;67.82
77019;BME280;66044;53.142;17.962;2023-05-20T05:03:48;102262.45;;;12.06;67.92
77019;BME280;66044;53.142;17.962;2023-05-20T05:06:15;102264.57;;;12.11;67.95
77019;BME280;66044;53.142;17.962;2023-05-20T05:08:41;102265.09;;;12.18;68.18
77019;BME280;66044;53.142;17.962;2023-05-20T05:11:07;102262.06;;;12.24;67.44
77019;BME280;66044;53.142;17.962;2023-05-20T05:13:34;102259.95;;;12.27;67.35
77019;BME280;66044;53.142;17.962;2023-05-20T05:16:01;102263.05;;;12.28;67.16
77019;BME280;66044;53.142;17.962;2023-05-20T05:18:28;102263.55;;;12.31;67.23
77019;BME280;66044;53.142;17.962;2023-05-20T05:21:12;102267.27;;;12.36;66.98
77019;BME280;66044;53.142;17.962;2023-05-20T05:23:39;102270.15;;;12.40;67.21
77019;BME280;66044;53.142;17.962;2023-05-20T05:26:07;102271.19;;;12.49;67.04
77019;BME280;66044;53.142;17.962;2023-05-20T05:28:34;102269.14;;;12.59;66.99
77019;BME280;66044;53.142;17.962;2023-05-20T05:31:00;102267.48;;;12.68;66.86
77019;BME280;66044;53.142;17.962;2023-05-20T05:33:27;102265.83;;;12.71;66.61
77019;BME280;66044;53.142;17.962;2023-05-20T05:35:54;102263.05;;;12.78;66.70
77019;BME280;66044;53.142;17.962;2023-05-20T05:38:21;102262.95;;;12.84;66.60
77019;BME280;66044;53.142;17.962;2023-05-20T05:40:48;102266.54;;;12.90;66.37
77019;BME280;66044;53.142;17.962;2023-05-20T05:43:14;102264.63;;;12.92;66.23
77019;BME280;66044;53.142;17.962;2023-05-20T05:45:41;102261.97;;;12.97;66.22
77019;BME280;66044;53.142;17.962;2023-05-20T05:48:08;102265.86;;;13.04;65.98
77019;BME280;66044;53.142;17.962;2023-05-20T05:50:34;102259.23;;;13.10;65.86
77019;BME280;66044;53.142;17.962;2023-05-20T05:53:01;102264.14;;;13.15;65.54
77019;BME280;66044;53.142;17.962;2023-05-20T05:55:27;102261.65;;;13.20;65.59
77019;BME280;66044;53.142;17.962;2023-05-20T05:57:54;102263.89;;;13.23;65.21
77019;BME280;66044;53.142;17.962;2023-05-20T06:00:20;102263.04;;;13.23;65.01
77019;BME280;66044;53.142;17.962;2023-05-20T06:02:47;102268.11;;;13.26;65.15
77019;BME280;66044;53.142;17.962;2023-05-20T06:05:13;102265.82;;;13.27;64.99
77019;BME280;66044;53.142;17.962;2023-05-20T06:07:40;102267.64;;;13.30;64.77
77019;BME280;66044;53.142;17.962;2023-05-20T06:10:06;102269.65;;;13.31;64.87
77019;BME280;66044;53.142;17.962;2023-05-20T06:12:33;102272.93;;;13.35;64.71
77019;BME280;66044;53.142;17.962;2023-05-20T06:14:59;102274.58;;;13.42;64.76
77019;BME280;66044;53.142;17.962;2023-05-20T06:17:26;102274.55;;;13.51;64.65
77019;BME280;66044;53.142;17.962;2023-05-20T06:19:52;102271.60;;;13.59;64.48
77019;BME280;66044;53.142;17.962;2023-05-20T06:22:19;102271.90;;;13.65;64.12
77019;BME280;66044;53.142;17.962;2023-05-20T06:24:45;102270.83;;;13.68;64.13
77019;BME280;66044;53.142;17.962;2023-05-20T06:27:12;102266.93;;;13.69;64.09
77019;BME280;66044;53.142;17.962;2023-05-20T06:29:38;102266.90;;;13.73;63.91
77019;BME280;66044;53.142;17.962;2023-05-20T06:32:05;102271.88;;;13.77;63.80
77019;BME280;66044;53.142;17.962;2023-05-20T06:34:32;102272.92;;;13.80;63.75
77019;BME280;66044;53.142;17.962;2023-05-20T06:36:58;102273.33;;;13.83;63.64
77019;BME280;66044;53.142;17.962;2023-05-20T06:39:25;102274.33;;;13.87;63.20
77019;BME280;66044;53.142;17.962;2023-05-20T06:41:51;102277.79;;;13.91;63.36
77019;BME280;66044;53.142;17.962;2023-05-20T06:44:18;102274.87;;;13.95;63.22
77019;BME280;66044;53.142;17.962;2023-05-20T06:46:44;102281.55;;;14.04;63.20
77019;BME280;66044;53.142;17.962;2023-05-20T06:49:11;102281.23;;;14.09;62.88
77019;BME280;66044;53.142;17.962;2023-05-20T06:51:37;102278.88;;;14.14;62.75
77019;BME280;66044;53.142;17.962;2023-05-20T06:54:04;102282.83;;;14.20;62.66
77019;BME280;66044;53.142;17.962;2023-05-20T06:56:30;102278.80;;;14.26;62.43
77019;BME280;66044;53.142;17.962;2023-05-20T06:58:56;102276.92;;;14.30;62.35
77019;BME280;66044;53.142;17.962;2023-05-20T07:01:23;102280.11;;;14.37;62.20
77019;BME280;66044;53.142;17.962;2023-05-20T07:03:50;102276.13;;;14.45;62.04
77019;BME280;66044;53.142;17.962;2023-05-20T07:06:16;102272.82;;;14.53;61.81
77019;BME280;66044;53.142;17.962;2023-05-20T07:08:43;102268.15;;;14.62;61.57
77019;BME280;66044;53.142;17.962;2023-05-20T07:11:09;102266.77;;;14.72;61.40
77019;BME280;66044;53.142;17.962;2023-05-20T07:13:36;102267.73;;;14.82;61.32
77019;BME280;66044;53.142;17.962;2023-05-20T07:16:03;102268.05;;;14.91;61.10
77019;BME280;66044;53.142;17.962;2023-05-20T07:18:29;102269.91;;;14.96;60.88
77019;BME280;66044;53.142;17.962;2023-05-20T07:20:56;102265.49;;;14.99;60.78
77019;BME280;66044;53.142;17.962;2023-05-20T07:23:23;102263.40;;;15.09;60.66
77019;BME280;66044;53.142;17.962;2023-05-20T07:25:49;102262.98;;;15.17;60.39
77019;BME280;66044;53.142;17.962;2023-05-20T07:28:16;102263.27;;;15.18;60.27
77019;BME280;66044;53.142;17.962;2023-05-20T07:30:43;102259.27;;;15.24;60.19
77019;BME280;66044;53.142;17.962;2023-05-20T07:33:15;102256.20;;;15.34;60.10
77019;BME280;66044;53.142;17.962;2023-05-20T07:35:43;102258.87;;;15.39;59.84
77019;BME280;66044;53.142;17.962;2023-05-20T07:38:11;102257.85;;;15.43;59.79
77019;BME280;66044;53.142;17.962;2023-05-20T07:40:38;102250.40;;;15.48;59.45
77019;BME280;66044;53.142;17.962;2023-05-20T07:43:07;102244.98;;;15.59;59.59
77019;BME280;66044;53.142;17.962;2023-05-20T07:45:34;102250.27;;;15.71;59.24
77019;BME280;66044;53.142;17.962;2023-05-20T07:48:03;102248.45;;;15.75;58.73
77019;BME280;66044;53.142;17.962;2023-05-20T07:50:29;102248.55;;;15.83;58.68
77019;BME280;66044;53.142;17.962;2023-05-20T07:52:56;102245.91;;;15.98;58.59
77019;BME280;66044;53.142;17.962;2023-05-20T07:55:22;102247.97;;;16.12;58.40
77019;BME280;66044;53.142;17.962;2023-05-20T07:57:49;102247.54;;;16.22;58.20
77019;BME280;66044;53.142;17.962;2023-05-20T08:00:16;102244.30;;;16.30;57.82
77019;BME280;66044;53.142;17.962;2023-05-20T08:02:42;102244.45;;;16.39;57.65
77019;BME280;66044;53.142;17.962;2023-05-20T08:05:09;102246.30;;;16.51;57.01
77019;BME280;66044;53.142;17.962;2023-05-20T08:07:35;102242.45;;;16.64;57.05
77019;BME280;66044;53.142;17.962;2023-05-20T08:10:02;102242.73;;;16.83;56.83
77019;BME280;66044;53.142;17.962;2023-05-20T08:12:29;102242.21;;;17.02;56.75
77019;BME280;66044;53.142;17.962;2023-05-20T08:14:55;102239.39;;;17.24;56.49
77019;BME280;66044;53.142;17.962;2023-05-20T08:17:22;102234.36;;;17.35;55.96
77019;BME280;66044;53.142;17.962;2023-05-20T08:19:48;102240.90;;;17.47;55.78
77019;BME280;66044;53.142;17.962;2023-05-20T08:22:15;102236.95;;;17.47;55.61
77019;BME280;66044;53.142;17.962;2023-05-20T08:24:41;102232.30;;;17.45;55.26
77019;BME280;66044;53.142;17.962;2023-05-20T08:27:08;102235.34;;;17.50;55.32
77019;BME280;66044;53.142;17.962;2023-05-20T08:29:34;102240.35;;;17.57;55.06
77019;BME280;66044;53.142;17.962;2023-05-20T08:32:01;102233.95;;;17.67;54.91
77019;BME280;66044;53.142;17.962;2023-05-20T08:34:27;102238.70;;;17.78;54.90
77019;BME280;66044;53.142;17.962;2023-05-20T08:36:54;102231.10;;;17.83;54.92
77019;BME280;66044;53.142;17.962;2023-05-20T08:39:23;102236.47;;;17.88;54.63
77019;BME280;66044;53.142;17.962;2023-05-20T08:41:50;102238.44;;;17.91;54.42
77019;BME280;66044;53.142;17.962;2023-05-20T08:44:18;102235.77;;;17.99;54.43
77019;BME280;66044;53.142;17.962;2023-05-20T08:46:45;102230.33;;;18.01;54.30
77019;BME280;66044;53.142;17.962;2023-05-20T08:49:12;102223.76;;;18.04;54.32
77019;BME280;66044;53.142;17.962;2023-05-20T08:51:39;102223.70;;;18.22;54.29
77019;BME280;66044;53.142;17.962;2023-05-20T08:54:08;102219.89;;;18.39;53.83
77019;BME280;66044;53.142;17.962;2023-05-20T08:56:37;102219.98;;;18.49;53.62
77019;BME280;66044;53.142;17.962;2023-05-20T08:59:04;102215.17;;;18.64;53.45
77019;BME280;66044;53.142;17.962;2023-05-20T09:01:32;102213.60;;;18.81;53.12
77019;BME280;66044;53.142;17.962;2023-05-20T09:04:02;102208.77;;;19.15;52.79
77019;BME280;66044;53.142;17.962;2023-05-20T09:06:28;102204.35;;;19.46;52.49
77019;BME280;66044;53.142;17.962;2023-05-20T09:08:55;102203.08;;;19.77;52.06
77019;BME280;66044;53.142;17.962;2023-05-20T09:11:22;102206.00;;;20.01;51.24
77019;BME280;66044;53.142;17.962;2023-05-20T09:13:49;102205.77;;;19.97;50.40
77019;BME280;66044;53.142;17.962;2023-05-20T09:16:15;102204.45;;;19.85;50.01
77019;BME280;66044;53.142;17.962;2023-05-20T09:18:42;102198.80;;;19.75;50.30
77019;BME280;66044;53.142;17.962;2023-05-20T09:21:08;102197.05;;;19.70;50.32
77019;BME280;66044;53.142;17.962;2023-05-20T09:23:36;102193.64;;;19.71;50.58
77019;BME280;66044;53.142;17.962;2023-05-20T09:26:03;102192.68;;;19.79;50.81
77019;BME280;66044;53.142;17.962;2023-05-20T09:28:29;102191.44;;;19.88;50.56
77019;BME280;66044;53.142;17.962;2023-05-20T09:30:59;102188.01;;;19.94;50.43
77019;BME280;66044;53.142;17.962;2023-05-20T09:33:27;102186.83;;;20.00;50.42
77019;BME280;66044;53.142;17.962;2023-05-20T09:36:06;102182.73;;;19.99;50.00
77019;BME280;66044;53.142;17.962;2023-05-20T09:38:36;102174.14;;;19.88;50.13
77019;BME280;66044;53.142;17.962;2023-05-20T09:41:12;102172.43;;;19.89;49.79
77019;BME280;66044;53.142;17.962;2023-05-20T09:43:41;102171.86;;;19.88;49.75
77019;BME280;66044;53.142;17.962;2023-05-20T09:46:07;102173.00;;;19.95;49.56
77019;BME280;66044;53.142;17.962;2023-05-20T09:48:35;102168.45;;;20.01;49.82
77019;BME280;66044;53.142;17.962;2023-05-20T09:51:03;102163.72;;;20.12;49.51
77019;BME280;66044;53.142;17.962;2023-05-20T09:53:30;102165.61;;;20.26;49.46
77019;BME280;66044;53.142;17.962;2023-05-20T09:55:57;102171.54;;;20.41;48.57
77019;BME280;66044;53.142;17.962;2023-05-20T09:58:23;102169.83;;;20.45;48.37
77019;BME280;66044;53.142;17.962;2023-05-20T10:00:51;102173.97;;;20.57;48.02
77019;BME280;66044;53.142;17.962;2023-05-20T10:03:20;102173.73;;;20.77;48.18
77019;BME280;66044;53.142;17.962;2023-05-20T10:05:54;102172.48;;;21.08;48.01
77019;BME280;66044;53.142;17.962;2023-05-20T10:11:26;102170.95;;;21.24;47.14
77019;BME280;66044;53.142;17.962;2023-05-20T10:17:38;102170.88;;;21.67;46.82
77019;BME280;66044;53.142;17.962;2023-05-20T10:20:07;102167.55;;;21.78;46.26
77019;BME280;66044;53.142;17.962;2023-05-20T10:22:39;102164.45;;;21.79;46.08
77019;BME280;66044;53.142;17.962;2023-05-20T10:25:10;102160.41;;;21.77;46.00
77019;BME280;66044;53.142;17.962;2023-05-20T10:27:45;102153.42;;;21.75;45.50
77019;BME280;66044;53.142;17.962;2023-05-20T10:30:19;102152.17;;;21.66;45.53
77019;BME280;66044;53.142;17.962;2023-05-20T10:32:54;102146.58;;;21.59;45.73
77019;BME280;66044;53.142;17.962;2023-05-20T10:35:23;102154.73;;;21.65;45.74
77019;BME280;66044;53.142;17.962;2023-05-20T10:38:04;102149.05;;;21.70;45.54
77019;BME280;66044;53.142;17.962;2023-05-20T10:40:31;102141.97;;;21.63;45.56
77019;BME280;66044;53.142;17.962;2023-05-20T10:43:07;102138.14;;;21.54;45.64
77019;BME280;66044;53.142;17.962;2023-05-20T10:45:34;102136.89;;;21.50;45.95
77019;BME280;66044;53.142;17.962;2023-05-20T10:48:02;102137.89;;;21.53;45.84
77019;BME280;66044;53.142;17.962;2023-05-20T10:50:36;102142.21;;;21.45;45.58
77019;BME280;66044;53.142;17.962;2023-05-20T10:53:04;102146.11;;;21.37;45.79
77019;BME280;66044;53.142;17.962;2023-05-20T10:55:36;102142.45;;;21.34;45.75
77019;BME280;66044;53.142;17.962;2023-05-20T10:58:04;102141.77;;;21.34;45.83
77019;BME280;66044;53.142;17.962;2023-05-20T11:00:34;102139.16;;;21.28;45.53
77019;BME280;66044;53.142;17.962;2023-05-20T11:03:03;102142.68;;;21.24;45.69
77019;BME280;66044;53.142;17.962;2023-05-20T11:05:30;102136.35;;;21.12;45.50
77019;BME280;66044;53.142;17.962;2023-05-20T11:08:05;102127.73;;;20.96;46.04
77019;BME280;66044;53.142;17.962;2023-05-20T11:10:36;102127.93;;;21.02;46.27
77019;BME280;66044;53.142;17.962;2023-05-20T11:13:03;102129.31;;;21.04;46.33
77019;BME280;66044;53.142;17.962;2023-05-20T11:15:30;102125.00;;;20.96;46.18
77019;BME280;66044;53.142;17.962;2023-05-20T11:18:01;102119.30;;;20.87;46.43
77019;BME280;66044;53.142;17.962;2023-05-20T11:20:28;102117.36;;;21.00;46.76
77019;BME280;66044;53.142;17.962;2023-05-20T11:22:55;102120.13;;;21.25;46.62
77019;BME280;66044;53.142;17.962;2023-05-20T11:25:22;102122.23;;;21.43;46.48
77019;BME280;66044;53.142;17.962;2023-05-20T11:27:49;102121.73;;;21.64;45.88
77019;BME280;66044;53.142;17.962;2023-05-20T11:30:16;102123.05;;;21.68;45.67
77019;BME280;66044;53.142;17.962;2023-05-20T11:33:01;102119.40;;;21.73;45.65
77019;BME280;66044;53.142;17.962;2023-05-20T11:35:30;102116.40;;;21.86;45.50
77019;BME280;66044;53.142;17.962;2023-05-20T11:38:02;102111.20;;;21.89;45.29
77019;BME280;66044;53.142;17.962;2023-05-20T11:40:31;102111.52;;;21.84;45.50
77019;BME280;66044;53.142;17.962;2023-05-20T11:42:59;102106.95;;;21.86;45.59
77019;BME280;66044;53.142;17.962;2023-05-20T11:45:36;102114.29;;;21.86;45.38
77019;BME280;66044;53.142;17.962;2023-05-20T11:48:05;102104.30;;;21.78;45.61
77019;BME280;66044;53.142;17.962;2023-05-20T11:50:37;102109.63;;;21.78;45.59
77019;BME280;66044;53.142;17.962;2023-05-20T11:53:07;102098.67;;;21.68;45.71
77019;BME280;66044;53.142;17.962;2023-05-20T11:55:50;102101.90;;;21.74;45.94
77019;BME280;66044;53.142;17.962;2023-05-20T11:58:19;102104.80;;;21.79;45.88
77019;BME280;66044;53.142;17.962;2023-05-20T12:00:46;102104.27;;;21.80;45.95
77019;BME280;66044;53.142;17.962;2023-05-20T12:03:12;102110.70;;;21.78;46.00
77019;BME280;66044;53.142;17.962;2023-05-20T12:05:40;102107.70;;;21.75;46.02
77019;BME280;66044;53.142;17.962;2023-05-20T12:08:06;102105.27;;;21.69;45.70
77019;BME280;66044;53.142;17.962;2023-05-20T12:10:33;102101.34;;;21.64;45.95
77019;BME280;66044;53.142;17.962;2023-05-20T12:13:00;102106.31;;;21.76;45.96
77019;BME280;66044;53.142;17.962;2023-05-20T12:15:26;102102.45;;;21.79;45.94
77019;BME280;66044;53.142;17.962;2023-05-20T12:17:53;102106.63;;;21.82;45.97
77019;BME280;66044;53.142;17.962;2023-05-20T12:20:21;102102.01;;;21.86;45.94
77019;BME280;66044;53.142;17.962;2023-05-20T12:22:49;102103.11;;;21.92;45.90
77019;BME280;66044;53.142;17.962;2023-05-20T12:25:17;102107.66;;;21.96;45.89
77019;BME280;66044;53.142;17.962;2023-05-20T12:27:45;102107.94;;;21.94;45.91
77019;BME280;66044;53.142;17.962;2023-05-20T12:30:17;102103.74;;;21.92;45.93
77019;BME280;66044;53.142;17.962;2023-05-20T12:32:45;102096.36;;;21.85;46.01
77019;BME280;66044;53.142;17.962;2023-05-20T12:35:12;102090.25;;;21.78;46.19
77019;BME280;66044;53.142;17.962;2023-05-20T12:37:40;102084.28;;;21.77;46.42
77019;BME280;66044;53.142;17.962;2023-05-20T12:40:08;102083.66;;;21.82;46.33
77019;BME280;66044;53.142;17.962;2023-05-20T12:42:37;102077.10;;;21.83;46.23
77019;BME280;66044;53.142;17.962;2023-05-20T12:45:04;102080.42;;;21.86;46.44
77019;BME280;66044;53.142;17.962;2023-05-20T12:47:32;102076.87;;;21.93;46.33
77019;BME280;66044;53.142;17.962;2023-05-20T12:49:59;102079.71;;;22.04;46.24